createdAt,value
2019-03-05T00:00:39.632Z,96600.34
2019-03-05T00:05:42.935Z,96605.74
2019-03-05T00:10:46.190Z,96596.92
2019-03-05T00:15:49.447Z,96597.69
2019-03-05T00:20:52.724Z,96605.53
2019-03-05T00:25:55.963Z,96591.39
2019-03-05T00:31:06.212Z,96614.70
2019-03-05T00:36:18.136Z,96609.52
2019-03-05T00:41:33.419Z,96616.43
2019-03-05T00:46:52.382Z,96604.34
2019-03-05T00:52:23.202Z,96622.08
2019-03-05T00:57:36.880Z,96637.48
2019-03-05T01:02:48.053Z,96642.32
2019-03-05T01:07:51.352Z,96641.66
2019-03-05T01:12:54.606Z,96643.45
2019-03-05T01:17:57.862Z,96635.97
2019-03-05T01:23:01.181Z,96636.07
2019-03-05T01:28:04.506Z,96638.72
2019-03-05T01:33:12.081Z,96651.34
2019-03-05T01:38:15.418Z,96646.64
2019-03-05T01:43:18.714Z,96647.09
2019-03-05T01:48:21.951Z,96649.03
2019-03-05T01:53:25.243Z,96658.95
2019-03-05T01:58:28.549Z,96651.86
2019-03-05T02:03:31.787Z,96634.42
2019-03-05T02:08:35.034Z,96639.58
2019-03-05T02:13:38.369Z,96656.67
2019-03-05T02:18:41.621Z,96660.58
2019-03-05T02:24:01.620Z,96677.88
2019-03-05T02:29:16.733Z,96664.95
2019-03-05T02:34:32.154Z,96673.41
2019-03-05T02:39:54.857Z,96683.24
2019-03-05T02:45:20.859Z,96692.95
2019-03-05T02:50:34.248Z,96671.83
2019-03-05T02:55:49.711Z,96666.50
2019-03-05T03:00:58.138Z,96652.63
2019-03-05T03:06:08.603Z,96660.78
2019-03-05T03:11:11.920Z,96665.18
2019-03-05T03:16:15.179Z,96672.66
2019-03-05T03:21:18.434Z,96679.22
2019-03-05T03:26:21.731Z,96678.20
2019-03-05T03:31:25.022Z,96685.21
2019-03-05T03:36:28.359Z,96683.34
2019-03-05T03:41:31.608Z,96699.73
2019-03-05T03:46:34.871Z,96688.56
2019-03-05T03:51:38.110Z,96692.89
2019-03-05T03:56:41.349Z,96695.44
2019-03-05T04:01:44.681Z,96703.66
2019-03-05T04:06:47.937Z,96701.99
2019-03-05T04:11:51.225Z,96704.31
2019-03-05T04:16:54.467Z,96711.92
2019-03-05T04:21:57.706Z,96702.34
2019-03-05T04:27:01.047Z,96697.93
2019-03-05T04:32:04.290Z,96692.08
2019-03-05T04:37:07.551Z,96682.98
2019-03-05T04:42:10.873Z,96683.70
2019-03-05T04:47:14.116Z,96696.84
2019-03-05T04:52:20.333Z,96694.41
2019-03-05T04:57:23.582Z,96703.68
2019-03-05T05:02:26.825Z,96693.33
2019-03-05T05:07:33.361Z,96688.13
2019-03-05T05:12:36.619Z,96702.38
2019-03-05T05:17:39.933Z,96695.45
2019-03-05T05:22:43.170Z,96695.25
2019-03-05T05:27:46.410Z,96690.52
2019-03-05T05:32:49.761Z,96693.04
2019-03-05T05:37:53.006Z,96696.09
2019-03-05T05:42:56.278Z,96696.30
2019-03-05T05:47:59.516Z,96688.54
2019-03-05T05:53:02.766Z,96698.09
2019-03-05T05:58:06.095Z,96701.33
2019-03-05T06:03:09.352Z,96700.05
2019-03-05T06:08:12.661Z,96705.73
2019-03-05T06:13:15.885Z,96699.53
2019-03-05T06:18:19.122Z,96704.84
2019-03-05T06:23:23.464Z,96706.25
2019-03-05T06:28:26.720Z,96717.38
2019-03-05T06:33:29.986Z,96716.80
2019-03-05T06:38:33.262Z,96720.48
2019-03-05T06:43:36.592Z,96726.03
2019-03-05T06:48:39.851Z,96727.44
2019-03-05T06:53:43.079Z,96742.28
2019-03-05T06:58:46.408Z,96752.00
2019-03-05T07:03:49.645Z,96751.77
2019-03-05T07:08:59.836Z,96780.09
2019-03-05T07:14:04.282Z,96774.17
2019-03-05T07:19:13.381Z,96785.06
2019-03-05T07:24:24.639Z,96799.90
2019-03-05T07:29:27.978Z,96812.94
2019-03-05T07:34:32.093Z,96807.73
2019-03-05T07:39:35.426Z,96806.45
2019-03-05T07:44:38.710Z,96801.73
2019-03-05T07:49:44.093Z,96817.09
2019-03-05T07:54:45.185Z,96819.31
2019-03-05T07:59:48.554Z,96825.72
2019-03-05T08:04:51.854Z,96817.72
2019-03-05T08:09:56.098Z,96818.51
2019-03-05T08:15:41.773Z,96816.29
2019-03-05T08:20:45.112Z,96817.89
2019-03-05T08:25:48.394Z,96822.55
2019-03-05T08:30:51.626Z,96821.70
2019-03-05T08:35:54.901Z,96820.25
2019-03-05T08:40:58.234Z,96838.05
2019-03-05T08:46:01.457Z,96835.89
2019-03-05T08:51:04.717Z,96841.85
2019-03-05T08:56:07.982Z,96846.95
2019-03-05T09:01:11.250Z,96855.97
2019-03-05T09:06:14.553Z,96858.63
2019-03-05T09:11:17.809Z,96856.37
2019-03-05T09:16:21.173Z,96850.30
2019-03-05T09:21:24.404Z,96865.52
2019-03-05T09:26:27.668Z,96853.37
2019-03-05T09:31:30.929Z,96851.80
2019-03-05T09:36:34.206Z,96845.96
2019-03-05T09:41:37.506Z,96843.55
2019-03-05T09:46:40.814Z,96850.15
2019-03-05T09:51:44.123Z,96839.09
2019-03-05T09:56:47.438Z,96845.78
2019-03-05T10:01:51.958Z,96821.38
2019-03-05T10:06:55.210Z,96848.33
2019-03-05T10:11:58.483Z,96833.93
2019-03-05T10:17:01.737Z,96825.91
2019-03-05T10:22:05.001Z,96833.19
2019-03-05T10:27:08.320Z,96836.56
2019-03-05T10:32:11.818Z,96822.27
2019-03-05T10:37:18.948Z,96818.46
2019-03-05T10:42:19.644Z,96814.72
2019-03-05T10:47:23.026Z,96813.73
2019-03-05T10:52:26.289Z,96816.78
2019-03-05T10:57:29.596Z,96815.00
2019-03-05T11:02:32.907Z,96814.71
2019-03-05T11:07:36.160Z,96825.88
2019-03-05T11:12:39.942Z,96834.25
2019-03-05T11:17:43.229Z,96821.14
2019-03-05T11:22:46.574Z,96826.89
2019-03-05T11:27:49.973Z,96821.00
2019-03-05T11:32:53.262Z,96823.39
2019-03-05T11:37:56.552Z,96806.02
2019-03-05T11:43:05.751Z,96804.63
2019-03-05T11:48:09.071Z,96798.77
2019-03-05T11:53:12.388Z,96798.33
2019-03-05T11:58:15.739Z,96795.78
2019-03-05T12:03:19.009Z,96810.41
2019-03-05T12:08:22.362Z,96814.87
2019-03-05T12:13:25.638Z,96829.90
2019-03-05T12:18:31.810Z,96841.59
2019-03-05T12:23:35.042Z,96842.91
2019-03-05T12:28:38.286Z,96837.41
2019-03-05T12:33:41.546Z,96831.10
2019-03-05T12:38:46.269Z,96835.83
2019-03-05T12:43:48.066Z,96827.00
2019-03-05T12:48:51.395Z,96815.27
2019-03-05T12:53:54.672Z,96819.41
2019-03-05T12:58:57.943Z,96805.95
2019-03-05T13:04:01.187Z,96776.09
2019-03-05T13:09:05.639Z,96744.78
2019-03-05T13:14:12.161Z,96751.97
2019-03-05T13:19:12.357Z,96769.50
2019-03-05T13:24:15.662Z,96788.92
2019-03-05T13:29:20.444Z,96813.14
2019-03-05T13:34:22.396Z,96822.42
2019-03-05T13:39:25.731Z,96829.83
2019-03-05T13:44:32.163Z,96839.41
2019-03-05T13:49:48.737Z,96843.23
2019-03-05T13:56:05.114Z,96852.48
2019-03-05T14:01:08.969Z,96850.72
2019-03-05T14:06:25.641Z,96858.77
2019-03-05T14:11:28.882Z,96852.23
2019-03-05T14:16:32.196Z,96861.28
2019-03-05T14:21:35.572Z,96832.28
2019-03-05T14:26:38.907Z,96838.09
2019-03-05T14:31:42.282Z,96828.58
2019-03-05T14:36:45.656Z,96825.91
2019-03-05T14:41:48.918Z,96826.07
2019-03-05T14:46:55.444Z,96830.84
2019-03-05T14:51:58.769Z,96819.95
2019-03-05T14:57:02.039Z,96836.90
2019-03-05T15:02:05.333Z,96836.67
2019-03-05T15:07:08.605Z,96837.04
2019-03-05T15:12:12.010Z,96835.52
2019-03-05T15:17:15.476Z,96847.14
2019-03-05T15:22:18.978Z,96853.20
2019-03-05T15:27:22.444Z,96857.59
2019-03-05T15:32:25.760Z,96867.56
2019-03-05T15:37:29.113Z,96886.30
2019-03-05T15:42:32.410Z,96888.45
2019-03-05T15:47:36.816Z,96888.92
2019-03-05T15:52:40.093Z,96887.19
2019-03-05T15:57:43.381Z,96896.62
2019-03-05T16:02:46.756Z,96897.97
2019-03-05T16:07:50.088Z,96907.30
2019-03-05T16:12:53.370Z,96923.81
2019-03-05T16:17:56.714Z,96925.02
2019-03-05T16:23:00.030Z,96944.19
2019-03-05T16:28:06.385Z,96938.81
2019-03-05T16:33:14.818Z,96950.53
2019-03-05T16:38:55.142Z,96955.97
2019-03-05T16:44:02.849Z,96950.37
2019-03-05T16:49:16.285Z,96967.64
2019-03-05T16:54:41.931Z,96972.04
2019-03-05T17:00:00.347Z,96970.09
2019-03-05T17:05:23.781Z,96983.03
2019-03-05T17:10:31.352Z,96979.88
2019-03-05T17:15:34.676Z,96967.64
2019-03-05T17:20:38.101Z,96986.45
2019-03-05T17:25:41.490Z,97003.44
2019-03-05T17:30:44.767Z,97013.66
2019-03-05T17:35:48.152Z,97030.22
2019-03-05T17:40:51.439Z,97043.02
2019-03-05T17:45:54.809Z,97055.65
2019-03-05T17:50:58.662Z,97065.30
2019-03-05T17:56:03.059Z,97077.38
2019-03-05T18:01:06.479Z,97079.74
2019-03-05T18:06:10.227Z,97087.46
2019-03-05T18:11:13.735Z,97098.19
2019-03-05T18:16:17.109Z,97108.54
2019-03-05T18:21:20.436Z,97106.09
2019-03-05T18:26:24.129Z,97104.00
2019-03-05T18:31:27.448Z,97108.35
2019-03-05T18:36:30.874Z,97116.88
2019-03-05T18:41:34.787Z,97126.15
2019-03-05T18:46:38.199Z,97121.95
2019-03-05T18:51:41.521Z,97130.84
2019-03-05T18:56:44.918Z,97133.63
2019-03-05T19:01:48.210Z,97137.11
2019-03-05T19:06:51.575Z,97152.15
2019-03-05T19:11:55.994Z,97163.02
2019-03-05T19:16:59.370Z,97175.93
2019-03-05T19:22:02.714Z,97185.83
2019-03-05T19:27:06.247Z,97191.72
2019-03-05T19:32:09.701Z,97188.14
2019-03-05T19:37:13.031Z,97196.31
2019-03-05T19:42:16.914Z,97200.98
2019-03-05T19:47:20.462Z,97197.27
2019-03-05T19:52:24.208Z,97214.91
2019-03-05T19:57:27.751Z,97216.50
2019-03-05T20:02:31.520Z,97229.35
2019-03-05T20:07:36.100Z,97224.97
2019-03-05T20:12:39.671Z,97234.77
2019-03-05T20:17:43.280Z,97239.73
2019-03-05T20:22:46.598Z,97249.75
2019-03-05T20:27:51.586Z,97259.05
2019-03-05T20:32:55.520Z,97261.97
2019-03-05T20:37:59.014Z,97271.20
2019-03-05T20:43:03.606Z,97279.20
2019-03-05T20:48:07.317Z,97297.98
2019-03-05T20:53:10.834Z,97297.90
2019-03-05T20:58:14.224Z,97296.61
2019-03-05T21:03:17.558Z,97292.31
2019-03-05T21:08:21.166Z,97301.03
2019-03-05T21:13:24.518Z,97307.92
2019-03-05T21:18:28.283Z,97313.94
2019-03-05T21:23:31.634Z,97320.56
2019-03-05T21:28:34.994Z,97318.07
2019-03-05T21:33:38.786Z,97330.84
2019-03-05T21:38:42.532Z,97335.26
2019-03-05T21:43:46.101Z,97336.81
2019-03-05T21:48:49.757Z,97345.08
2019-03-05T21:53:53.227Z,97342.41
2019-03-05T21:58:56.900Z,97352.92
2019-03-05T22:04:00.672Z,97349.50
2019-03-05T22:09:05.004Z,97345.16
2019-03-05T22:14:08.512Z,97345.50
2019-03-05T22:19:12.207Z,97355.47
2019-03-05T22:24:15.541Z,97359.11
2019-03-05T22:29:19.038Z,97357.81
2019-03-05T22:34:22.381Z,97363.45
2019-03-05T22:39:25.627Z,97368.28
2019-03-05T22:44:31.470Z,97364.28
2019-03-05T22:49:35.438Z,97370.20
2019-03-05T22:54:38.947Z,97366.33
2019-03-05T22:59:42.471Z,97372.55
2019-03-05T23:04:46.041Z,97372.88
2019-03-05T23:09:49.529Z,97368.91
2019-03-05T23:14:53.003Z,97376.77
2019-03-05T23:19:56.435Z,97376.80
2019-03-05T23:25:00.258Z,97380.27
2019-03-05T23:30:03.985Z,97389.13
2019-03-05T23:35:08.451Z,97390.28
2019-03-05T23:40:12.839Z,97393.85
2019-03-05T23:45:16.120Z,97397.54
2019-03-05T23:50:19.451Z,97410.02
2019-03-05T23:55:22.775Z,97408.33
